Murphy City, Minnesota
Current Conditions -  °F | °C
As of 11:33 PM on Tuesday 25 Nov 2014 (Local Time) from KELO Reporting Station
Scattered Clouds Scattered Clouds  
Wind Chill:   Ceiling: Unl
Heat Index:   Visibility: 10mi
Dew Point:   Wind: 0mph
Humidity: 92%   Direction: NA
Pressure: 30.04"   Gusts: NA
Location:  47.7823°N, 91.1739°W
Report Text: KELO 260533Z AUTO 00000KT 10SM SCT110 M17/M18 A3004 RMK AO2
Loading
Personal Weather Stations






























Interactive Weather Map New forecast layout! Learn more

10-Day Weather Forecast

Advertisements
Track Severe Weather on mobile